createdAt,value
2019-05-18T00:00:05.259Z,69.50
2019-05-18T00:01:07.743Z,69.40
2019-05-18T00:02:05.573Z,69.20
2019-05-18T00:03:05.672Z,69.20
2019-05-18T00:04:05.790Z,69.30
2019-05-18T00:05:04.924Z,69.40
2019-05-18T00:06:10.899Z,69.50
2019-05-18T00:07:05.860Z,69.50
2019-05-18T00:08:04.878Z,69.60
2019-05-18T00:09:08.472Z,69.70
2019-05-18T00:10:07.988Z,69.80
2019-05-18T00:11:05.795Z,69.80
2019-05-18T00:12:08.277Z,70.10
2019-05-18T00:13:07.581Z,70.30
2019-05-18T00:14:07.909Z,70.50
2019-05-18T00:15:08.355Z,70.60
2019-05-18T00:16:05.338Z,70.60
2019-05-18T00:17:24.780Z,70.60
2019-05-18T00:18:05.144Z,70.70
2019-05-18T00:19:05.140Z,70.70
2019-05-18T00:20:07.626Z,70.80
2019-05-18T00:21:05.454Z,70.80
2019-05-18T00:22:05.468Z,70.90
2019-05-18T00:23:08.132Z,70.90
2019-05-18T00:24:05.163Z,70.90
2019-05-18T00:25:05.194Z,70.90
2019-05-18T00:26:07.663Z,71.20
2019-05-18T00:27:05.532Z,71.20
2019-05-18T00:28:05.519Z,71.20
2019-05-18T00:29:05.576Z,71.20
2019-05-18T00:30:08.057Z,71.40
2019-05-18T00:31:07.422Z,71.50
2019-05-18T00:32:05.304Z,71.50
2019-05-18T00:33:07.808Z,71.50
2019-05-18T00:34:08.235Z,71.40
2019-05-18T00:35:04.994Z,71.40
2019-05-18T00:36:07.441Z,71.50
2019-05-18T00:37:05.234Z,71.50
2019-05-18T00:38:07.780Z,71.70
2019-05-18T00:39:10.791Z,71.70
2019-05-18T00:40:08.261Z,71.70
2019-05-18T00:41:05.263Z,71.70
2019-05-18T00:42:05.347Z,71.60
2019-05-18T00:43:05.402Z,71.80
2019-05-18T00:44:05.429Z,71.70
2019-05-18T00:45:10.956Z,71.60
2019-05-18T00:46:08.318Z,71.60
2019-05-18T00:47:05.120Z,71.50
2019-05-18T00:48:05.123Z,71.50
2019-05-18T00:49:05.006Z,71.40
2019-05-18T00:50:07.475Z,71.50
2019-05-18T00:51:05.278Z,71.50
2019-05-18T00:52:05.325Z,71.40
2019-05-18T00:53:05.321Z,71.50
2019-05-18T00:54:05.292Z,71.40
2019-05-18T00:55:05.338Z,71.70
2019-05-18T00:56:05.327Z,71.70
2019-05-18T00:57:05.622Z,71.80
2019-05-18T00:58:08.116Z,72.10
2019-05-18T00:59:05.088Z,72.10
2019-05-18T01:00:05.015Z,71.90
2019-05-18T01:01:05.051Z,71.90
2019-05-18T01:02:07.650Z,71.80
2019-05-18T01:03:05.589Z,71.80
2019-05-18T01:04:05.643Z,71.80
2019-05-18T01:05:07.420Z,71.90
2019-05-18T01:06:07.766Z,71.90
2019-05-18T01:07:05.551Z,71.90
2019-05-18T01:08:08.066Z,71.90
2019-05-18T01:09:04.911Z,71.90
2019-05-18T01:10:07.441Z,72.00
2019-05-18T01:11:07.765Z,72.00
2019-05-18T01:12:05.621Z,72.00
2019-05-18T01:13:05.541Z,72.10
2019-05-18T01:14:05.475Z,72.10
2019-05-18T01:15:08.078Z,72.20
2019-05-18T01:16:04.955Z,72.20
2019-05-18T01:17:07.522Z,72.20
2019-05-18T01:18:05.361Z,72.20
2019-05-18T01:19:07.948Z,72.10
2019-05-18T01:20:08.422Z,72.20
2019-05-18T01:21:05.297Z,72.20
2019-05-18T01:22:07.942Z,72.80
2019-05-18T01:23:05.822Z,72.80
2019-05-18T01:24:08.251Z,72.50
2019-05-18T01:25:05.242Z,72.50
2019-05-18T01:26:07.917Z,72.60
2019-05-18T01:27:05.753Z,72.80
2019-05-18T01:28:05.852Z,72.70
2019-05-18T01:29:08.362Z,72.70
2019-05-18T01:30:07.785Z,72.80
2019-05-18T01:31:05.616Z,72.80
2019-05-18T01:32:05.607Z,73.10
2019-05-18T01:33:05.689Z,73.30
2019-05-18T01:34:08.327Z,73.30
2019-05-18T01:35:05.200Z,73.30
2019-05-18T01:36:05.275Z,73.30
2019-05-18T01:37:05.302Z,73.40
2019-05-18T01:38:05.401Z,73.30
2019-05-18T01:39:05.452Z,73.30
2019-05-18T01:40:07.997Z,73.20
2019-05-18T01:41:08.343Z,73.10
2019-05-18T01:42:05.163Z,73.10
2019-05-18T01:43:05.121Z,73.20
2019-05-18T01:44:05.167Z,73.20
2019-05-18T01:45:17.529Z,73.10
2019-05-18T01:46:05.720Z,73.00
2019-05-18T01:47:05.662Z,73.00
2019-05-18T01:48:14.669Z,73.10
2019-05-18T01:49:05.723Z,73.10
2019-05-18T01:50:08.220Z,73.40
2019-05-18T01:51:05.028Z,73.30
2019-05-18T01:52:05.087Z,73.40
2019-05-18T01:53:05.058Z,73.50
2019-05-18T01:54:05.083Z,73.60
2019-05-18T01:55:04.996Z,73.50
2019-05-18T01:56:04.976Z,73.50
2019-05-18T01:58:05.835Z,73.60
2019-05-18T01:59:05.688Z,73.50
2019-05-18T02:00:05.822Z,73.60
2019-05-18T02:01:05.966Z,73.50
2019-05-18T02:02:04.970Z,73.50
2019-05-18T02:03:07.407Z,73.60
2019-05-18T02:04:05.279Z,73.50
2019-05-18T02:05:05.250Z,73.70
2019-05-18T02:06:05.194Z,73.80
2019-05-18T02:07:07.725Z,73.80
2019-05-18T02:08:05.579Z,73.80
2019-05-18T02:09:07.997Z,73.70
2019-05-18T02:10:05.804Z,73.80
2019-05-18T02:11:08.329Z,73.80
2019-05-18T02:12:10.209Z,73.70
2019-05-18T02:13:07.526Z,73.60
2019-05-18T02:14:05.340Z,73.60
2019-05-18T02:15:08.056Z,73.50
2019-05-18T02:16:05.017Z,73.50
2019-05-18T02:17:05.136Z,73.40
2019-05-18T02:18:29.452Z,73.50
2019-05-18T02:19:05.355Z,73.50
2019-05-18T02:20:05.581Z,73.60
2019-05-18T02:21:05.645Z,73.60
2019-05-18T02:22:05.642Z,73.70
2019-05-18T02:23:05.711Z,73.70
2019-05-18T02:24:05.820Z,73.70
2019-05-18T02:25:05.904Z,73.60
2019-05-18T02:26:04.944Z,73.50
2019-05-18T02:27:05.065Z,73.50
2019-05-18T02:28:07.568Z,73.50
2019-05-18T02:29:08.009Z,73.50
2019-05-18T02:30:04.943Z,73.50
2019-05-18T02:31:07.426Z,73.70
2019-05-18T02:32:05.309Z,73.60
2019-05-18T02:33:05.292Z,73.60
2019-05-18T02:34:05.781Z,73.60
2019-05-18T02:35:05.755Z,73.50
2019-05-18T02:36:08.310Z,73.50
2019-05-18T02:37:05.149Z,73.50
2019-05-18T02:38:05.184Z,73.50
2019-05-18T02:39:05.268Z,73.60
2019-05-18T02:40:07.776Z,74.00
2019-05-18T02:41:05.701Z,73.90
2019-05-18T02:42:05.666Z,73.80
2019-05-18T02:43:05.596Z,73.80
2019-05-18T02:44:05.544Z,73.70
2019-05-18T02:45:05.799Z,73.60
2019-05-18T02:46:05.955Z,73.60
2019-05-18T02:47:07.593Z,73.40
2019-05-18T02:48:05.476Z,73.50
2019-05-18T02:49:05.497Z,73.40
2019-05-18T02:50:05.476Z,73.30
2019-05-18T02:51:05.475Z,73.30
2019-05-18T02:52:05.435Z,73.30
2019-05-18T02:53:07.915Z,73.30
2019-05-18T02:54:05.742Z,73.30
2019-05-18T02:55:05.677Z,73.30
2019-05-18T02:56:05.732Z,73.30
2019-05-18T02:57:05.758Z,73.50
2019-05-18T02:58:05.842Z,73.40
2019-05-18T02:59:08.522Z,73.50
2019-05-18T03:00:05.386Z,73.50
2019-05-18T03:01:08.018Z,73.50
2019-05-18T03:02:04.954Z,73.50
2019-05-18T03:03:04.992Z,73.50
2019-05-18T03:04:07.702Z,73.50
2019-05-18T03:05:05.594Z,73.40
2019-05-18T03:06:05.568Z,73.50
2019-05-18T03:07:05.602Z,73.50
2019-05-18T03:08:05.705Z,73.40
2019-05-18T03:09:05.652Z,73.50
2019-05-18T03:10:05.808Z,73.50
2019-05-18T03:11:05.867Z,73.40
2019-05-18T03:12:04.999Z,73.50
2019-05-18T03:13:05.129Z,73.30
2019-05-18T03:14:05.153Z,73.30
2019-05-18T03:15:05.615Z,73.30
2019-05-18T03:16:05.746Z,73.40
2019-05-18T03:17:08.477Z,73.60
2019-05-18T03:18:07.950Z,73.60
2019-05-18T03:19:09.458Z,73.60
2019-05-18T03:20:05.669Z,73.60
2019-05-18T03:21:08.205Z,73.60
2019-05-18T03:22:05.053Z,73.60
2019-05-18T03:23:07.604Z,73.70
2019-05-18T03:24:05.494Z,73.70
2019-05-18T03:25:05.436Z,73.70
2019-05-18T03:26:05.484Z,73.80
2019-05-18T03:27:08.050Z,73.90
2019-05-18T03:28:04.911Z,73.90
2019-05-18T03:29:04.904Z,73.90
2019-05-18T03:30:08.003Z,74.00
2019-05-18T03:31:05.057Z,73.80
2019-05-18T03:32:05.334Z,73.80
2019-05-18T03:33:07.598Z,73.90
2019-05-18T03:34:08.109Z,74.00
2019-05-18T03:35:05.013Z,74.00
2019-05-18T03:36:05.049Z,74.00
2019-05-18T03:37:05.121Z,74.10
2019-05-18T03:38:05.074Z,74.20
2019-05-18T03:39:05.015Z,74.40
2019-05-18T03:40:05.051Z,74.50
2019-05-18T03:41:05.301Z,74.50
2019-05-18T03:42:07.760Z,74.50
2019-05-18T03:43:08.138Z,74.50
2019-05-18T03:44:05.060Z,74.60
2019-05-18T03:45:05.276Z,74.60
2019-05-18T03:46:05.285Z,74.60
2019-05-18T03:47:05.228Z,74.60
2019-05-18T03:48:07.701Z,74.50
2019-05-18T03:49:27.265Z,74.40
2019-05-18T03:50:05.788Z,74.40
2019-05-18T03:51:08.301Z,74.50
2019-05-18T03:52:05.206Z,74.50
2019-05-18T03:53:07.652Z,74.60
2019-05-18T03:54:05.512Z,74.60
2019-05-18T03:55:05.650Z,74.60
2019-05-18T03:56:05.652Z,74.70
2019-05-18T03:57:13.356Z,75.10
2019-05-18T03:58:05.309Z,75.10
2019-05-18T03:59:07.895Z,75.40
2019-05-18T04:00:08.292Z,75.30
2019-05-18T04:01:05.282Z,75.30
2019-05-18T04:02:05.295Z,75.20
2019-05-18T04:03:05.418Z,74.90
2019-05-18T04:04:05.502Z,74.60
2019-05-18T04:05:05.693Z,74.50
2019-05-18T04:06:08.229Z,74.40
2019-05-18T04:07:07.571Z,74.50
2019-05-18T04:08:05.489Z,74.50
2019-05-18T04:09:08.022Z,75.10
2019-05-18T04:10:05.899Z,75.20
2019-05-18T04:11:08.377Z,75.40
2019-05-18T04:12:05.231Z,75.40
2019-05-18T04:13:05.590Z,75.40
2019-05-18T04:14:09.055Z,75.30
2019-05-18T04:15:05.064Z,75.20
2019-05-18T04:16:07.595Z,74.80
2019-05-18T04:17:05.475Z,74.70
2019-05-18T04:18:08.016Z,74.10
2019-05-18T04:19:04.872Z,74.10
2019-05-18T04:20:05.894Z,73.90
2019-05-18T04:21:10.983Z,73.10
2019-05-18T04:22:08.473Z,72.50
2019-05-18T04:23:05.344Z,72.50
2019-05-18T04:24:07.845Z,69.80
2019-05-18T04:25:06.127Z,69.80
2019-05-18T04:26:05.188Z,68.90
2019-05-18T04:27:05.156Z,68.60
2019-05-18T04:28:07.783Z,67.40
2019-05-18T04:29:08.136Z,66.90
2019-05-18T04:30:04.983Z,67.00
2019-05-18T04:31:07.597Z,65.80
2019-05-18T04:32:05.572Z,65.70
2019-05-18T04:33:08.231Z,63.80
2019-05-18T04:34:05.086Z,63.80
2019-05-18T04:35:07.607Z,63.00
2019-05-18T04:36:05.571Z,63.00
2019-05-18T04:37:05.576Z,62.50
2019-05-18T04:38:05.645Z,61.90
2019-05-18T04:39:05.620Z,61.20
2019-05-18T04:40:05.773Z,60.50
2019-05-18T04:41:08.355Z,59.40
2019-05-18T04:42:07.751Z,58.80
2019-05-18T04:43:08.170Z,58.50
2019-05-18T04:44:05.154Z,58.50
2019-05-18T04:45:05.505Z,58.20
2019-05-18T04:46:05.487Z,58.00
2019-05-18T04:47:05.429Z,57.50
2019-05-18T04:48:05.418Z,56.90
2019-05-18T04:49:05.420Z,56.60
2019-05-18T04:50:06.625Z,56.10
2019-05-18T04:51:05.687Z,55.70
2019-05-18T04:52:08.189Z,54.60
2019-05-18T04:53:05.023Z,54.50
2019-05-18T04:54:05.013Z,54.30
2019-05-18T04:55:07.534Z,53.70
2019-05-18T04:56:08.007Z,53.40
2019-05-18T04:57:04.882Z,53.40
2019-05-18T04:58:05.899Z,53.20
2019-05-18T04:59:04.932Z,52.90
2019-05-18T05:00:04.935Z,52.70
2019-05-18T05:01:04.974Z,52.60
2019-05-18T05:02:05.023Z,52.40
2019-05-18T05:03:10.119Z,51.40
2019-05-18T05:04:05.206Z,51.30
2019-05-18T05:05:07.725Z,51.00
2019-05-18T05:06:05.663Z,51.00
2019-05-18T05:07:05.701Z,50.40
2019-05-18T05:08:05.652Z,50.20
2019-05-18T05:09:05.621Z,50.30
2019-05-18T05:10:10.678Z,49.80
2019-05-18T05:11:05.697Z,49.90
2019-05-18T05:12:05.696Z,49.70
2019-05-18T05:13:05.710Z,49.40
2019-05-18T05:14:05.874Z,49.20
2019-05-18T05:15:07.565Z,48.90
2019-05-18T05:16:05.432Z,48.90
2019-05-18T05:17:04.990Z,48.80
2019-05-18T05:18:04.949Z,48.50
2019-05-18T05:19:09.189Z,48.40
2019-05-18T05:20:19.972Z,48.30
2019-05-18T05:21:07.786Z,47.60
2019-05-18T05:22:05.686Z,47.60
2019-05-18T05:23:05.702Z,47.60
2019-05-18T05:24:08.188Z,47.30
2019-05-18T05:25:05.040Z,47.30
2019-05-18T05:26:05.081Z,47.10
2019-05-18T05:27:07.602Z,46.90
2019-05-18T05:28:08.029Z,46.70
2019-05-18T05:29:04.875Z,46.60
2019-05-18T05:30:05.992Z,46.80
2019-05-18T05:31:05.061Z,46.70
2019-05-18T05:32:05.005Z,46.40
2019-05-18T05:33:07.473Z,45.80
2019-05-18T05:34:05.338Z,45.80
2019-05-18T05:35:05.327Z,45.50
2019-05-18T05:36:07.822Z,45.10
2019-05-18T05:37:05.681Z,45.10
2019-05-18T05:38:05.773Z,45.30
2019-05-18T05:39:05.762Z,45.10
2019-05-18T05:40:05.719Z,44.80
2019-05-18T05:41:17.021Z,44.90
2019-05-18T05:42:15.075Z,44.80
2019-05-18T05:43:05.009Z,44.90
2019-05-18T05:44:05.175Z,44.60
2019-05-18T05:45:07.916Z,44.10
2019-05-18T05:46:05.776Z,44.10
2019-05-18T05:47:05.867Z,44.50
2019-05-18T05:48:04.889Z,44.40
2019-05-18T05:49:05.838Z,44.30
2019-05-18T05:50:05.873Z,44.50
2019-05-18T05:51:04.880Z,44.70
2019-05-18T05:52:05.934Z,44.60
2019-05-18T05:53:05.079Z,44.30
2019-05-18T05:54:07.708Z,44.10
2019-05-18T05:55:05.549Z,44.00
2019-05-18T05:56:08.050Z,44.50
2019-05-18T05:57:07.415Z,44.30
2019-05-18T05:58:05.281Z,44.30
2019-05-18T05:59:07.911Z,44.10
2019-05-18T06:00:05.772Z,44.10
2019-05-18T06:01:08.228Z,43.60
2019-05-18T06:02:05.071Z,43.50
2019-05-18T06:03:07.612Z,43.90
2019-05-18T06:04:05.584Z,43.90
2019-05-18T06:05:05.723Z,44.00
2019-05-18T06:06:10.767Z,43.90
2019-05-18T06:07:05.644Z,43.90
2019-05-18T06:08:08.266Z,43.70
2019-05-18T06:09:07.647Z,43.90
2019-05-18T06:10:08.014Z,43.40
2019-05-18T06:11:08.586Z,43.30
2019-05-18T06:12:08.020Z,43.10
2019-05-18T06:13:05.841Z,43.10
2019-05-18T06:14:05.822Z,42.80
2019-05-18T06:15:08.327Z,42.30
2019-05-18T06:16:05.177Z,42.30
2019-05-18T06:17:08.748Z,42.60
2019-05-18T06:18:08.254Z,42.40
2019-05-18T06:19:07.646Z,42.80
2019-05-18T06:20:08.003Z,42.70
2019-05-18T06:21:05.864Z,42.80
2019-05-18T06:22:06.028Z,42.80
2019-05-18T06:23:07.681Z,42.70
2019-05-18T06:24:08.133Z,42.60
2019-05-18T06:25:10.301Z,41.80
2019-05-18T06:26:10.429Z,42.00
2019-05-18T06:27:07.827Z,42.20
2019-05-18T06:28:08.165Z,42.20
2019-05-18T06:29:07.534Z,42.50
2019-05-18T06:30:05.340Z,42.50
2019-05-18T06:31:05.324Z,42.70
2019-05-18T06:32:07.816Z,42.40
2019-05-18T06:33:05.613Z,42.50
2019-05-18T06:34:10.753Z,42.20
2019-05-18T06:35:05.695Z,42.30
2019-05-18T06:36:05.856Z,42.10
2019-05-18T06:37:06.014Z,42.30
2019-05-18T06:38:05.173Z,42.50
2019-05-18T06:39:10.297Z,42.30
2019-05-18T06:40:05.123Z,42.30
2019-05-18T06:41:07.633Z,42.60
2019-05-18T06:42:11.243Z,42.70
2019-05-18T06:43:07.633Z,41.80
2019-05-18T06:44:05.543Z,41.90
2019-05-18T06:45:05.007Z,41.80
2019-05-18T06:46:07.600Z,41.10
2019-05-18T06:47:05.494Z,41.10
2019-05-18T06:48:07.985Z,41.60
2019-05-18T06:49:08.362Z,41.50
2019-05-18T06:50:12.625Z,41.00
2019-05-18T06:51:07.885Z,41.10
2019-05-18T06:52:04.925Z,41.10
2019-05-18T06:53:04.853Z,41.30
2019-05-18T06:54:06.075Z,40.90
2019-05-18T06:55:05.095Z,41.30
2019-05-18T06:56:07.796Z,41.60
2019-05-18T06:57:05.717Z,41.60
2019-05-18T06:58:05.976Z,41.50
2019-05-18T06:59:05.236Z,40.70
2019-05-18T07:00:05.260Z,40.90
2019-05-18T07:01:07.773Z,41.30
2019-05-18T07:02:08.331Z,40.60
2019-05-18T07:03:05.216Z,40.60
2019-05-18T07:04:05.213Z,40.70
2019-05-18T07:05:07.696Z,40.50
2019-05-18T07:06:05.549Z,40.50
2019-05-18T07:07:05.509Z,40.30
2019-05-18T07:08:05.666Z,40.40
2019-05-18T07:09:14.542Z,41.10
2019-05-18T07:10:05.652Z,41.10
2019-05-18T07:11:05.636Z,41.40
2019-05-18T07:12:05.043Z,41.40
2019-05-18T07:13:05.019Z,40.90
2019-05-18T07:14:05.519Z,41.10
2019-05-18T07:15:05.660Z,41.30
2019-05-18T07:16:05.807Z,41.40
2019-05-18T07:17:05.854Z,41.40
2019-05-18T07:18:08.313Z,41.60
2019-05-18T07:19:05.148Z,41.60
2019-05-18T07:20:05.214Z,41.40
2019-05-18T07:21:05.298Z,41.40
2019-05-18T07:22:07.833Z,41.20
2019-05-18T07:23:08.354Z,41.50
2019-05-18T07:24:05.295Z,41.50
2019-05-18T07:25:07.874Z,41.50
2019-05-18T07:26:08.344Z,41.50
2019-05-18T07:27:05.209Z,41.50
2019-05-18T07:28:05.174Z,41.40
2019-05-18T07:29:06.141Z,41.90
2019-05-18T07:30:05.097Z,41.90
2019-05-18T07:31:05.103Z,42.20
2019-05-18T07:32:05.167Z,42.10
2019-05-18T07:33:07.846Z,42.20
2019-05-18T07:34:05.901Z,42.30
2019-05-18T07:35:04.990Z,41.60
2019-05-18T07:36:07.599Z,40.90
2019-05-18T07:37:05.520Z,40.80
2019-05-18T07:38:05.550Z,40.70
2019-05-18T07:39:08.099Z,41.00
2019-05-18T07:40:07.501Z,40.90
2019-05-18T07:41:05.403Z,40.90
2019-05-18T07:42:10.629Z,40.40
2019-05-18T07:43:05.561Z,40.40
2019-05-18T07:44:05.677Z,39.90
2019-05-18T07:45:04.915Z,40.20
2019-05-18T07:46:09.164Z,40.90
2019-05-18T07:47:05.027Z,41.00
2019-05-18T07:48:05.050Z,41.00
2019-05-18T07:49:05.066Z,40.80
2019-05-18T07:50:05.092Z,41.20
2019-05-18T07:51:05.273Z,40.80
2019-05-18T07:52:05.498Z,40.10
2019-05-18T07:53:08.071Z,41.20
2019-05-18T07:54:04.959Z,41.20
2019-05-18T07:55:05.054Z,41.50
2019-05-18T07:56:05.149Z,41.20
2019-05-18T07:57:07.757Z,39.20
2019-05-18T07:58:05.649Z,39.20
2019-05-18T07:59:05.655Z,39.20
2019-05-18T08:00:05.874Z,39.10
2019-05-18T08:01:04.952Z,38.50
2019-05-18T08:02:04.984Z,38.80
2019-05-18T08:03:05.160Z,38.60
2019-05-18T08:04:05.240Z,39.20
2019-05-18T08:05:05.238Z,12.90
2019-05-18T08:06:05.286Z,38.30
2019-05-18T08:07:07.844Z,38.20
2019-05-18T08:08:08.215Z,37.90
2019-05-18T08:09:05.236Z,38.00
2019-05-18T08:10:05.389Z,38.10
2019-05-18T08:11:05.507Z,38.70
2019-05-18T08:12:07.970Z,38.20
2019-05-18T08:13:08.302Z,38.00
2019-05-18T08:14:07.752Z,38.30
2019-05-18T08:15:05.614Z,38.40
2019-05-18T08:16:05.613Z,38.30
2019-05-18T08:17:08.168Z,38.50
2019-05-18T08:18:07.663Z,39.40
2019-05-18T08:19:05.491Z,39.40
2019-05-18T08:20:08.092Z,39.20
2019-05-18T08:21:05.064Z,39.20
2019-05-18T08:22:10.320Z,38.70
2019-05-18T08:23:07.824Z,38.50
2019-05-18T08:24:06.648Z,38.50
2019-05-18T08:25:05.877Z,38.90
2019-05-18T08:26:07.583Z,39.00
2019-05-18T08:27:05.394Z,39.00
2019-05-18T08:28:05.383Z,39.20
2019-05-18T08:29:05.462Z,38.70
2019-05-18T08:30:05.580Z,38.10
2019-05-18T08:31:08.080Z,38.50
2019-05-18T08:32:04.911Z,38.30
2019-05-18T08:33:05.104Z,39.80
2019-05-18T08:34:05.253Z,39.00
2019-05-18T08:35:10.390Z,38.70
2019-05-18T08:36:05.319Z,38.80
2019-05-18T08:37:05.269Z,38.60
2019-05-18T08:38:07.724Z,38.40
2019-05-18T08:39:08.375Z,38.20
2019-05-18T08:40:07.888Z,38.10
2019-05-18T08:41:05.863Z,38.00
2019-05-18T08:42:04.888Z,38.00
2019-05-18T08:43:04.873Z,38.20
2019-05-18T08:44:05.944Z,38.80
2019-05-18T08:45:05.335Z,39.00
2019-05-18T08:46:07.922Z,38.00
2019-05-18T08:47:08.356Z,38.30
2019-05-18T08:48:07.741Z,38.20
2019-05-18T08:49:05.677Z,38.20
2019-05-18T08:50:08.206Z,38.90
2019-05-18T08:51:05.201Z,38.90
2019-05-18T08:52:08.907Z,38.70
2019-05-18T08:53:07.390Z,38.80
2019-05-18T08:54:07.805Z,38.90
2019-05-18T08:55:05.682Z,38.90
2019-05-18T08:56:05.701Z,38.60
2019-05-18T08:57:08.557Z,38.20
2019-05-18T08:58:05.559Z,38.30
2019-05-18T08:59:05.550Z,38.30
2019-05-18T09:00:08.082Z,38.00
2019-05-18T09:01:04.955Z,38.00
2019-05-18T09:02:07.488Z,37.90
2019-05-18T09:03:07.979Z,38.40
2019-05-18T09:04:04.936Z,38.40
2019-05-18T09:05:05.534Z,38.20
2019-05-18T09:06:05.649Z,38.50
2019-05-18T09:07:05.772Z,39.00
2019-05-18T09:08:05.779Z,38.70
2019-05-18T09:09:05.933Z,38.70
2019-05-18T09:10:05.147Z,38.40
2019-05-18T09:11:05.284Z,38.70
2019-05-18T09:12:05.416Z,38.60
2019-05-18T09:13:05.508Z,38.50
2019-05-18T09:14:05.732Z,38.60
2019-05-18T09:15:05.781Z,38.90
2019-05-18T09:16:08.303Z,38.80
2019-05-18T09:17:10.277Z,38.70
2019-05-18T09:18:05.518Z,38.70
2019-05-18T09:19:05.583Z,38.40
2019-05-18T09:20:05.709Z,38.60
2019-05-18T09:21:08.453Z,38.90
2019-05-18T09:22:05.518Z,38.90
2019-05-18T09:23:05.755Z,38.70
2019-05-18T09:24:05.914Z,39.10
2019-05-18T09:25:05.038Z,39.50
2019-05-18T09:26:05.146Z,39.60
2019-05-18T09:27:05.165Z,39.60
2019-05-18T09:28:07.855Z,39.40
2019-05-18T09:29:08.281Z,39.40
2019-05-18T09:30:07.872Z,39.20
2019-05-18T09:31:07.683Z,39.20
2019-05-18T09:32:05.558Z,39.30
2019-05-18T09:33:05.487Z,39.20
2019-05-18T09:34:05.443Z,39.80
2019-05-18T09:35:07.940Z,40.90
2019-05-18T09:36:06.055Z,40.90
2019-05-18T09:37:07.740Z,40.50
2019-05-18T09:38:08.361Z,40.00
2019-05-18T09:39:05.428Z,39.90
2019-05-18T09:40:05.431Z,39.90
2019-05-18T09:41:05.397Z,40.20
2019-05-18T09:42:05.559Z,40.20
2019-05-18T09:43:05.676Z,40.20
2019-05-18T09:44:05.667Z,40.20
2019-05-18T09:45:07.580Z,39.50
2019-05-18T09:46:05.741Z,39.50
2019-05-18T09:47:05.857Z,39.90
2019-05-18T09:48:06.091Z,39.90
2019-05-18T09:49:05.379Z,40.90
2019-05-18T09:50:05.541Z,40.90
2019-05-18T09:51:05.641Z,40.40
2019-05-18T09:52:05.644Z,40.20
2019-05-18T09:53:11.162Z,41.20
2019-05-18T09:54:05.286Z,41.20
2019-05-18T09:55:08.157Z,40.20
2019-05-18T09:56:05.257Z,40.20
2019-05-18T09:57:08.121Z,40.40
2019-05-18T09:58:07.579Z,40.30
2019-05-18T09:59:08.095Z,40.00
2019-05-18T10:00:07.530Z,40.50
2019-05-18T10:01:07.965Z,40.80
2019-05-18T10:02:05.810Z,40.80
2019-05-18T10:03:08.441Z,40.10
2019-05-18T10:04:05.498Z,40.10
2019-05-18T10:05:05.319Z,39.60
2019-05-18T10:06:05.554Z,39.80
2019-05-18T10:07:05.785Z,40.30
2019-05-18T10:08:08.648Z,40.80
2019-05-18T10:09:05.630Z,40.90
2019-05-18T10:10:05.822Z,41.10
2019-05-18T10:11:07.560Z,40.30
2019-05-18T10:12:05.611Z,40.40
2019-05-18T10:13:05.697Z,39.50
2019-05-18T10:14:08.307Z,39.40
2019-05-18T10:15:07.860Z,38.60
2019-05-18T10:16:05.970Z,38.60
2019-05-18T10:17:05.284Z,38.90
2019-05-18T10:18:08.110Z,39.40
2019-05-18T10:19:07.561Z,39.60
2019-05-18T10:20:08.008Z,40.20
2019-05-18T10:21:04.978Z,40.20
2019-05-18T10:22:05.240Z,40.00
2019-05-18T10:23:14.101Z,39.50
2019-05-18T10:24:07.858Z,40.10
2019-05-18T10:25:08.333Z,40.10
2019-05-18T10:26:07.825Z,40.20
2019-05-18T10:27:10.780Z,39.90
2019-05-18T10:28:08.200Z,39.50
2019-05-18T10:29:05.026Z,39.50
2019-05-18T10:30:04.986Z,39.50
2019-05-18T10:31:05.244Z,38.90
2019-05-18T10:32:05.413Z,38.50
2019-05-18T10:33:07.944Z,38.70
2019-05-18T10:34:05.861Z,38.70
2019-05-18T10:35:05.837Z,38.90
2019-05-18T10:36:12.195Z,39.20
2019-05-18T10:37:05.199Z,39.20
2019-05-18T10:38:05.299Z,39.50
2019-05-18T10:39:08.076Z,39.20
2019-05-18T10:40:05.129Z,39.20
2019-05-18T10:41:05.139Z,39.10
2019-05-18T10:42:07.800Z,38.40
2019-05-18T10:43:05.797Z,38.50
2019-05-18T10:44:06.108Z,39.30
2019-05-18T10:45:06.226Z,39.00
2019-05-18T10:46:05.351Z,38.90
2019-05-18T10:47:05.685Z,39.00
2019-05-18T10:48:08.382Z,37.40
2019-05-18T10:49:08.267Z,38.00
2019-05-18T10:50:10.606Z,36.50
2019-05-18T10:51:06.140Z,36.40
2019-05-18T10:52:05.345Z,36.50
2019-05-18T10:53:05.667Z,37.00
2019-05-18T10:54:05.742Z,37.00
2019-05-18T10:55:08.552Z,37.80
2019-05-18T10:56:05.943Z,37.80
2019-05-18T10:57:05.134Z,12.40
2019-05-18T10:58:05.707Z,37.80
2019-05-18T10:59:06.246Z,37.70
2019-05-18T11:00:05.927Z,37.10
2019-05-18T11:01:05.549Z,36.60
2019-05-18T11:02:08.391Z,36.90
2019-05-18T11:03:05.457Z,36.90
2019-05-18T11:04:08.250Z,37.80
2019-05-18T11:05:05.524Z,37.80
2019-05-18T11:06:08.282Z,38.20
2019-05-18T11:07:05.405Z,38.10
2019-05-18T11:08:06.054Z,37.50
2019-05-18T11:09:05.583Z,38.00
2019-05-18T11:10:06.122Z,37.10
2019-05-18T11:11:10.482Z,36.60
2019-05-18T11:12:08.444Z,36.80
2019-05-18T11:13:10.828Z,36.70
2019-05-18T11:14:08.786Z,36.60
2019-05-18T11:15:06.598Z,36.70
2019-05-18T11:16:08.837Z,37.70
2019-05-18T11:17:06.194Z,37.80
2019-05-18T11:18:05.669Z,37.30
2019-05-18T11:19:06.227Z,37.80
2019-05-18T11:20:05.834Z,38.00
2019-05-18T11:21:05.489Z,38.40
2019-05-18T11:22:06.063Z,38.30
2019-05-18T11:23:06.106Z,37.90
2019-05-18T11:24:05.562Z,38.00
2019-05-18T11:25:06.273Z,37.90
2019-05-18T11:26:06.032Z,38.00
2019-05-18T11:27:05.842Z,38.00
2019-05-18T11:28:10.524Z,38.00
2019-05-18T11:29:06.157Z,38.00
2019-05-18T11:30:05.911Z,38.20
2019-05-18T11:31:08.040Z,38.60
2019-05-18T11:32:05.393Z,38.60
2019-05-18T11:33:05.850Z,39.10
2019-05-18T11:34:05.280Z,39.40
2019-05-18T11:35:06.327Z,39.50
2019-05-18T11:36:05.638Z,39.30
2019-05-18T11:37:08.925Z,38.50
2019-05-18T11:38:06.416Z,38.30
2019-05-18T11:39:11.087Z,37.80
2019-05-18T11:40:05.571Z,37.80
2019-05-18T11:41:11.377Z,37.90
2019-05-18T11:42:05.862Z,36.40
2019-05-18T11:43:06.349Z,38.00
2019-05-18T11:44:05.630Z,37.40
2019-05-18T11:45:10.623Z,36.10
2019-05-18T11:46:05.743Z,36.10
2019-05-18T11:47:08.500Z,36.70
2019-05-18T11:48:08.018Z,36.20
2019-05-18T11:49:08.820Z,35.80
2019-05-18T11:50:08.437Z,36.40
2019-05-18T11:51:05.364Z,36.50
2019-05-18T11:52:05.406Z,36.50
2019-05-18T11:53:05.769Z,36.80
2019-05-18T11:54:06.304Z,36.80
2019-05-18T11:55:05.413Z,37.00
2019-05-18T11:56:05.670Z,37.10
2019-05-18T11:57:06.224Z,35.90
2019-05-18T11:58:05.561Z,35.30
2019-05-18T11:59:16.269Z,35.70
2019-05-18T12:00:08.219Z,35.80
2019-05-18T12:01:05.570Z,35.70
2019-05-18T12:02:05.842Z,35.30
2019-05-18T12:03:06.485Z,35.30
2019-05-18T12:04:05.702Z,35.50
2019-05-18T12:05:08.542Z,35.50
2019-05-18T12:06:05.979Z,35.50
2019-05-18T12:07:05.632Z,35.60
2019-05-18T12:08:08.413Z,35.30
2019-05-18T12:09:08.438Z,35.50
2019-05-18T12:10:05.644Z,35.60
2019-05-18T12:11:05.763Z,35.80
2019-05-18T12:12:05.984Z,36.00
2019-05-18T12:13:07.846Z,36.20
2019-05-18T12:14:08.409Z,36.10
2019-05-18T12:15:05.457Z,36.10
2019-05-18T12:16:05.518Z,35.80
2019-05-18T12:17:05.601Z,35.60
2019-05-18T12:18:08.228Z,36.00
2019-05-18T12:19:05.396Z,36.00
2019-05-18T12:20:08.122Z,35.50
2019-05-18T12:21:05.171Z,35.50
2019-05-18T12:22:08.239Z,36.10
2019-05-18T12:23:09.045Z,36.10
2019-05-18T12:24:16.104Z,35.40
2019-05-18T12:25:05.496Z,34.70
2019-05-18T12:26:08.337Z,35.30
2019-05-18T12:27:05.323Z,35.30
2019-05-18T12:28:07.982Z,35.40
2019-05-18T12:29:05.947Z,35.40
2019-05-18T12:30:04.917Z,35.60
2019-05-18T12:31:06.037Z,35.70
2019-05-18T12:32:10.603Z,36.40
2019-05-18T12:33:05.523Z,36.40
2019-05-18T12:34:05.565Z,37.20
2019-05-18T12:35:05.662Z,36.70
2019-05-18T12:36:05.895Z,36.10
2019-05-18T12:37:08.523Z,36.10
2019-05-18T12:38:05.540Z,36.10
2019-05-18T12:39:08.327Z,36.00
2019-05-18T12:40:05.405Z,36.00
2019-05-18T12:41:05.436Z,36.10
2019-05-18T12:42:08.015Z,35.70
2019-05-18T12:43:07.444Z,35.50
2019-05-18T12:44:05.346Z,35.50
2019-05-18T12:45:05.518Z,34.70
2019-05-18T12:46:05.747Z,34.10
2019-05-18T12:47:06.031Z,34.70
2019-05-18T12:48:05.208Z,35.60
2019-05-18T12:49:05.581Z,36.00
2019-05-18T12:50:05.932Z,35.60
2019-05-18T12:51:05.163Z,34.80
2019-05-18T12:52:05.528Z,35.20
2019-05-18T12:53:05.909Z,35.40